createdAt,value
2019-03-24T00:01:05.652Z,62.10
2019-03-24T00:03:37.597Z,60.50
2019-03-24T00:06:11.714Z,69.30
2019-03-24T00:08:44.768Z,68.53
2019-03-24T00:11:17.961Z,73.20
2019-03-24T00:13:51.867Z,65.97
2019-03-24T00:16:23.800Z,63.77
2019-03-24T00:18:55.899Z,70.80
2019-03-24T00:21:29.958Z,75.40
2019-03-24T00:24:01.913Z,65.93
2019-03-24T00:26:33.885Z,63.43
2019-03-24T00:29:07.938Z,61.23
2019-03-24T00:31:40.970Z,65.97
2019-03-24T00:34:15.725Z,62.07
2019-03-24T00:36:49.020Z,62.87
2019-03-24T00:39:21.973Z,64.13
2019-03-24T00:41:55.903Z,67.08
2019-03-24T00:44:28.685Z,59.40
2019-03-24T00:47:01.031Z,59.97
2019-03-24T00:49:33.828Z,59.08
2019-03-24T00:52:06.883Z,69.00
2019-03-24T00:54:40.051Z,66.12
2019-03-24T00:57:13.993Z,62.60
2019-03-24T00:59:46.099Z,59.40
2019-03-24T01:02:21.820Z,68.53
2019-03-24T01:04:54.931Z,66.20
2019-03-24T01:07:29.479Z,65.20
2019-03-24T01:10:02.106Z,59.67
2019-03-24T01:12:35.021Z,61.23
2019-03-24T01:15:09.357Z,74.93
2019-03-24T01:17:43.352Z,66.00
2019-03-24T01:20:16.955Z,69.32
2019-03-24T01:22:51.139Z,68.07
2019-03-24T01:25:24.095Z,71.45
2019-03-24T01:27:56.260Z,69.03
2019-03-24T01:30:31.819Z,62.80
2019-03-24T01:33:04.552Z,65.70
2019-03-24T01:35:37.191Z,65.37
2019-03-24T01:38:11.245Z,62.17
2019-03-24T01:40:44.923Z,59.20
2019-03-24T01:43:18.199Z,61.25
2019-03-24T01:45:58.525Z,66.97
2019-03-24T01:48:28.281Z,76.20
2019-03-24T01:51:02.198Z,71.27
2019-03-24T01:53:36.271Z,65.60
2019-03-24T01:56:09.147Z,64.30
2019-03-24T01:58:43.255Z,63.07
2019-03-24T02:01:15.331Z,62.63
2019-03-24T02:03:47.219Z,62.77
2019-03-24T02:06:21.086Z,72.63
2019-03-24T02:08:54.429Z,62.23
2019-03-24T02:11:29.870Z,66.73
2019-03-24T02:14:03.349Z,56.97
2019-03-24T02:16:36.396Z,62.60
2019-03-24T02:19:08.817Z,71.27
2019-03-24T02:21:42.187Z,60.77
2019-03-24T02:24:14.595Z,61.10
2019-03-24T02:26:48.486Z,61.03
2019-03-24T02:29:21.319Z,62.90
2019-03-24T02:31:54.257Z,62.83
2019-03-24T02:34:27.261Z,71.90
2019-03-24T02:37:00.437Z,66.17
2019-03-24T02:39:34.428Z,62.90
2019-03-24T02:42:08.411Z,62.37
2019-03-24T02:44:43.039Z,76.80
2019-03-24T02:47:16.026Z,66.93
2019-03-24T02:49:48.992Z,61.90
2019-03-24T02:52:22.565Z,62.80
2019-03-24T02:54:55.418Z,64.17
2019-03-24T02:57:30.043Z,65.42
2019-03-24T03:00:02.603Z,63.80
2019-03-24T03:02:36.541Z,64.13
2019-03-24T03:05:11.037Z,65.20
2019-03-24T03:07:43.619Z,65.87
2019-03-24T03:10:16.282Z,67.23
2019-03-24T03:12:50.965Z,59.13
2019-03-24T03:15:24.765Z,60.17
2019-03-24T03:18:00.078Z,65.00
2019-03-24T03:20:33.680Z,66.30
2019-03-24T03:23:05.750Z,63.83
2019-03-24T03:25:37.733Z,72.20
2019-03-24T03:28:10.832Z,64.70
2019-03-24T03:30:43.975Z,68.03
2019-03-24T03:33:17.771Z,70.60
2019-03-24T03:35:50.810Z,63.70
2019-03-24T03:38:22.653Z,64.43
2019-03-24T03:40:54.841Z,59.87
2019-03-24T03:43:27.793Z,63.90
2019-03-24T03:46:01.907Z,68.57
2019-03-24T03:48:35.825Z,65.80
2019-03-24T03:51:10.174Z,69.57
2019-03-24T03:53:43.272Z,64.20
2019-03-24T03:56:15.233Z,64.70
2019-03-24T03:58:47.166Z,62.07
2019-03-24T04:01:20.844Z,56.43
2019-03-24T04:03:53.962Z,59.80
2019-03-24T04:06:28.016Z,63.53
2019-03-24T04:08:59.978Z,68.40
2019-03-24T04:11:31.809Z,61.37
2019-03-24T04:14:05.899Z,64.80
2019-03-24T04:16:38.854Z,70.63
2019-03-24T04:19:13.593Z,73.30
2019-03-24T04:21:45.957Z,72.87
2019-03-24T04:24:17.797Z,71.90
2019-03-24T04:26:50.887Z,71.60
2019-03-24T04:29:24.048Z,68.67
2019-03-24T04:31:58.101Z,72.80
2019-03-24T04:34:31.155Z,71.10
2019-03-24T04:37:04.974Z,66.53
2019-03-24T04:39:39.160Z,65.17
2019-03-24T04:42:12.001Z,61.57
2019-03-24T04:44:46.192Z,60.63
2019-03-24T04:47:18.065Z,67.67
2019-03-24T04:49:50.786Z,59.70
2019-03-24T04:52:24.641Z,64.97
2019-03-24T04:54:57.084Z,71.50
2019-03-24T04:57:31.116Z,69.40
2019-03-24T05:00:04.138Z,68.73
2019-03-24T05:02:38.081Z,63.37
2019-03-24T05:05:12.309Z,66.30
2019-03-24T05:07:45.620Z,64.33
2019-03-24T05:10:28.037Z,77.77
2019-03-24T05:13:02.249Z,90.20
2019-03-24T05:15:35.416Z,98.17
2019-03-24T05:18:09.046Z,108.47
2019-03-24T05:20:42.473Z,90.13
2019-03-24T05:23:15.230Z,86.80
2019-03-24T05:25:49.320Z,87.87
2019-03-24T05:28:21.159Z,87.63
2019-03-24T05:30:53.711Z,88.10
2019-03-24T05:33:27.275Z,82.02
2019-03-24T05:35:59.372Z,73.80
2019-03-24T05:38:31.488Z,69.00
2019-03-24T05:41:04.732Z,72.73
2019-03-24T05:43:40.978Z,66.03
2019-03-24T05:46:14.824Z,59.53
2019-03-24T05:48:48.243Z,65.00
2019-03-24T05:51:21.546Z,66.40
2019-03-24T05:53:57.881Z,72.55
2019-03-24T05:56:29.822Z,77.17
2019-03-24T05:59:03.421Z,69.95
2019-03-24T06:01:36.408Z,83.77
2019-03-24T06:04:08.375Z,72.13
2019-03-24T06:06:41.554Z,76.77
2019-03-24T06:09:15.007Z,87.83
2019-03-24T06:11:51.280Z,94.43
2019-03-24T06:14:25.316Z,83.83
2019-03-24T06:16:57.464Z,80.30
2019-03-24T06:19:29.363Z,80.90
2019-03-24T06:22:02.478Z,89.10
2019-03-24T06:24:36.379Z,79.07
2019-03-24T06:27:09.586Z,77.30
2019-03-24T06:29:43.465Z,76.03
2019-03-24T06:32:15.431Z,78.47
2019-03-24T06:34:48.621Z,71.77
2019-03-24T06:37:21.437Z,72.33
2019-03-24T06:39:53.523Z,78.03
2019-03-24T06:42:25.381Z,66.33
2019-03-24T06:44:58.637Z,79.87
2019-03-24T06:47:32.512Z,85.73
2019-03-24T06:50:06.029Z,70.80
2019-03-24T06:52:39.533Z,72.65
2019-03-24T06:55:13.916Z,72.85
2019-03-24T06:57:46.662Z,65.57
2019-03-24T07:00:20.645Z,72.30
2019-03-24T07:02:53.522Z,76.90
2019-03-24T07:05:25.792Z,68.65
2019-03-24T07:08:00.550Z,73.70
2019-03-24T07:10:34.553Z,75.83
2019-03-24T07:13:08.608Z,79.30
2019-03-24T07:15:41.877Z,72.63
2019-03-24T07:18:15.350Z,75.78
2019-03-24T07:20:49.469Z,66.67
2019-03-24T07:23:22.572Z,78.87
2019-03-24T07:25:56.895Z,74.57
2019-03-24T07:28:29.758Z,87.00
2019-03-24T07:31:03.660Z,69.50
2019-03-24T07:33:36.814Z,69.90
2019-03-24T07:36:10.719Z,65.23
2019-03-24T07:38:43.767Z,78.13
2019-03-24T07:41:15.810Z,82.23
2019-03-24T07:43:48.727Z,81.00
2019-03-24T07:46:22.537Z,77.33
2019-03-24T07:48:55.732Z,71.93
2019-03-24T07:51:28.993Z,80.93
2019-03-24T07:54:04.242Z,64.83
2019-03-24T07:56:38.876Z,81.03
2019-03-24T07:59:10.746Z,71.13
2019-03-24T08:01:43.759Z,69.10
2019-03-24T08:04:19.974Z,75.50
2019-03-24T08:06:53.766Z,76.60
2019-03-24T08:09:27.837Z,66.00
2019-03-24T08:12:01.328Z,63.57
2019-03-24T08:14:34.949Z,72.13
2019-03-24T08:17:08.096Z,74.67
2019-03-24T08:19:41.927Z,67.50
2019-03-24T08:22:15.124Z,63.83
2019-03-24T08:24:46.995Z,64.23
2019-03-24T08:27:18.987Z,65.78
2019-03-24T08:29:52.943Z,74.43
2019-03-24T08:32:27.011Z,67.53
2019-03-24T08:35:00.945Z,70.00
2019-03-24T08:37:33.943Z,60.93
2019-03-24T08:40:10.039Z,59.77
2019-03-24T08:42:44.124Z,63.83
2019-03-24T08:45:26.418Z,58.90
2019-03-24T08:48:00.433Z,64.10
2019-03-24T08:50:34.015Z,67.27
2019-03-24T08:53:07.559Z,59.27
2019-03-24T08:55:42.071Z,57.60
2019-03-24T08:58:14.154Z,57.63
2019-03-24T09:00:48.328Z,56.10
2019-03-24T09:03:20.328Z,54.70
2019-03-24T09:05:55.111Z,57.65
2019-03-24T09:08:29.292Z,51.33
2019-03-24T09:11:10.284Z,46.67
2019-03-24T09:13:48.161Z,59.27
2019-03-24T09:16:26.552Z,55.80
2019-03-24T09:19:05.641Z,55.00
2019-03-24T09:21:41.587Z,56.08
2019-03-24T09:24:20.527Z,54.73
2019-03-24T09:26:54.318Z,56.37
2019-03-24T09:29:29.280Z,52.35
2019-03-24T09:32:06.460Z,51.47
2019-03-24T09:34:40.505Z,53.43
2019-03-24T09:37:13.651Z,54.20
2019-03-24T09:39:48.706Z,58.63
2019-03-24T09:42:21.481Z,63.97
2019-03-24T09:44:53.470Z,56.23
2019-03-24T09:47:26.647Z,60.37
2019-03-24T09:49:59.412Z,57.47
2019-03-24T09:52:33.777Z,53.50
2019-03-24T09:55:07.190Z,53.17
2019-03-24T09:57:39.440Z,58.70
2019-03-24T10:00:12.130Z,55.20
2019-03-24T10:02:45.231Z,55.20
2019-03-24T10:05:18.290Z,61.45
2019-03-24T10:07:50.585Z,58.70
2019-03-24T10:10:24.742Z,58.87
2019-03-24T10:13:01.081Z,57.30
2019-03-24T10:15:55.833Z,54.00
2019-03-24T10:18:34.253Z,45.33
2019-03-24T10:21:10.590Z,56.17
2019-03-24T10:23:43.366Z,53.23
2019-03-24T10:26:15.575Z,60.53
2019-03-24T10:28:50.168Z,59.03
2019-03-24T10:31:23.689Z,54.60
2019-03-24T10:33:57.712Z,61.77
2019-03-24T10:36:32.256Z,64.80
2019-03-24T10:39:08.614Z,58.57
2019-03-24T10:41:43.026Z,70.83
2019-03-24T10:44:15.275Z,57.20
2019-03-24T10:46:48.681Z,64.40
2019-03-24T10:49:25.021Z,56.98
2019-03-24T10:51:55.639Z,62.23
2019-03-24T10:54:35.246Z,60.73
2019-03-24T10:57:08.693Z,58.27
2019-03-24T10:59:43.769Z,57.53
2019-03-24T11:02:15.699Z,67.53
2019-03-24T11:04:49.642Z,62.90
2019-03-24T11:07:21.770Z,62.73
2019-03-24T11:09:53.659Z,63.27
2019-03-24T11:12:26.150Z,67.33
2019-03-24T11:15:00.169Z,55.03
2019-03-24T11:17:33.667Z,71.47
2019-03-24T11:20:06.751Z,61.37
2019-03-24T11:22:39.731Z,57.80
2019-03-24T11:25:12.613Z,66.20
2019-03-24T11:27:47.995Z,68.07
2019-03-24T11:30:25.104Z,69.03
2019-03-24T11:32:58.775Z,69.73
2019-03-24T11:35:31.006Z,67.77
2019-03-24T11:38:05.250Z,60.07
2019-03-24T11:40:48.368Z,63.47
2019-03-24T11:43:27.771Z,73.10
2019-03-24T11:46:02.657Z,61.33
2019-03-24T11:48:36.067Z,62.67
2019-03-24T11:51:10.058Z,66.73
2019-03-24T11:53:44.072Z,64.20
2019-03-24T11:56:18.181Z,66.90
2019-03-24T11:58:51.266Z,69.27
2019-03-24T12:01:26.303Z,76.73
2019-03-24T12:04:01.042Z,67.43
2019-03-24T12:06:36.359Z,67.27
2019-03-24T12:09:13.678Z,71.40
2019-03-24T12:11:48.161Z,68.47
2019-03-24T12:14:30.686Z,62.43
2019-03-24T12:17:07.907Z,69.30
2019-03-24T12:19:42.196Z,64.87
2019-03-24T12:22:15.307Z,72.77
2019-03-24T12:24:48.274Z,63.93
2019-03-24T12:27:21.199Z,68.50
2019-03-24T12:29:55.186Z,63.90
2019-03-24T12:32:36.717Z,67.57
2019-03-24T12:35:14.172Z,62.97
2019-03-24T12:37:47.247Z,64.10
2019-03-24T12:40:21.302Z,69.17
2019-03-24T12:42:55.033Z,70.37
2019-03-24T12:45:28.330Z,70.97
2019-03-24T12:48:01.475Z,63.20
2019-03-24T12:50:37.559Z,77.03
2019-03-24T12:53:16.540Z,73.47
2019-03-24T12:55:52.649Z,73.07
2019-03-24T12:58:37.191Z,75.67
2019-03-24T13:01:11.908Z,71.23
2019-03-24T13:03:46.219Z,72.47
2019-03-24T13:06:19.303Z,70.97
2019-03-24T13:08:53.683Z,66.23
2019-03-24T13:11:28.345Z,75.23
2019-03-24T13:14:04.185Z,66.43
2019-03-24T13:16:38.470Z,64.77
2019-03-24T13:19:19.397Z,72.00
2019-03-24T13:21:55.372Z,60.90
2019-03-24T13:24:28.859Z,60.57
2019-03-24T13:27:04.994Z,60.10
2019-03-24T13:29:41.864Z,58.10
2019-03-24T13:32:15.789Z,68.17
2019-03-24T13:34:49.528Z,61.90
2019-03-24T13:37:22.413Z,58.90
2019-03-24T13:39:56.337Z,59.67
2019-03-24T13:42:30.385Z,60.12
2019-03-24T13:45:03.269Z,64.00
2019-03-24T13:47:37.420Z,62.17
2019-03-24T13:50:10.341Z,64.93
2019-03-24T13:52:47.488Z,60.60
2019-03-24T13:55:22.943Z,63.63
2019-03-24T13:58:01.389Z,62.83
2019-03-24T14:00:34.332Z,64.17
2019-03-24T14:03:11.085Z,59.93
2019-03-24T14:05:43.160Z,59.77
2019-03-24T14:08:18.711Z,62.43
2019-03-24T14:10:52.620Z,60.30
2019-03-24T14:13:26.734Z,66.37
2019-03-24T14:16:03.377Z,70.70
2019-03-24T14:18:35.660Z,72.70
2019-03-24T14:21:08.903Z,75.67
2019-03-24T14:23:43.000Z,68.30
2019-03-24T14:26:20.767Z,98.47
2019-03-24T14:28:55.021Z,73.07
2019-03-24T14:31:29.680Z,83.82
2019-03-24T14:34:03.759Z,76.93
2019-03-24T14:36:37.898Z,83.83
2019-03-24T14:39:10.832Z,93.50
2019-03-24T14:41:44.922Z,78.30
2019-03-24T14:44:17.850Z,78.13
2019-03-24T14:46:50.588Z,77.10
2019-03-24T14:49:24.737Z,85.85
2019-03-24T14:52:00.050Z,82.57
2019-03-24T14:54:36.212Z,90.47
2019-03-24T14:57:08.910Z,88.37
2019-03-24T14:59:41.898Z,88.47
2019-03-24T15:02:15.937Z,78.53
2019-03-24T15:04:48.714Z,89.77
2019-03-24T15:07:24.318Z,88.57
2019-03-24T15:10:00.023Z,78.33
2019-03-24T15:12:32.069Z,78.07
2019-03-24T15:15:07.775Z,81.57
2019-03-24T15:17:39.756Z,71.47
2019-03-24T15:20:14.029Z,67.50
2019-03-24T15:22:49.965Z,84.03
2019-03-24T15:25:24.997Z,77.25
2019-03-24T15:27:57.908Z,76.30
2019-03-24T15:30:30.834Z,69.67
2019-03-24T15:33:04.912Z,76.60
2019-03-24T15:35:38.036Z,65.80
2019-03-24T15:38:11.867Z,65.37
2019-03-24T15:40:45.523Z,67.50
2019-03-24T15:43:19.198Z,70.03
2019-03-24T15:45:53.026Z,71.80
2019-03-24T15:48:25.994Z,72.93
2019-03-24T15:51:01.810Z,72.33
2019-03-24T15:53:36.024Z,83.00
2019-03-24T15:56:10.153Z,89.70
2019-03-24T15:58:47.166Z,73.37
2019-03-24T16:01:19.298Z,76.10
2019-03-24T16:03:54.162Z,78.70
2019-03-24T16:06:26.998Z,75.50
2019-03-24T16:09:01.076Z,85.33
2019-03-24T16:11:34.169Z,87.90
2019-03-24T16:14:08.088Z,80.95
2019-03-24T16:16:40.953Z,81.93
2019-03-24T16:19:15.024Z,80.83
2019-03-24T16:21:49.169Z,80.53
2019-03-24T16:24:22.224Z,82.40
2019-03-24T16:26:55.017Z,84.83
2019-03-24T16:29:27.530Z,84.47
2019-03-24T16:32:00.179Z,82.20
2019-03-24T16:34:34.654Z,77.80
2019-03-24T16:37:07.283Z,81.77
2019-03-24T16:39:41.132Z,79.33
2019-03-24T16:42:14.151Z,80.00
2019-03-24T16:44:48.582Z,81.27
2019-03-24T16:47:26.954Z,86.02
2019-03-24T16:50:10.230Z,84.10
2019-03-24T16:52:57.504Z,89.13
2019-03-24T16:55:34.053Z,94.83
2019-03-24T16:58:06.250Z,90.30
2019-03-24T17:00:39.128Z,76.60
2019-03-24T17:03:15.655Z,84.77
2019-03-24T17:05:50.231Z,78.87
2019-03-24T17:08:23.328Z,87.03
2019-03-24T17:10:58.272Z,102.13
2019-03-24T17:13:30.315Z,87.57
2019-03-24T17:16:04.192Z,86.00
2019-03-24T17:18:37.295Z,82.13
2019-03-24T17:21:11.329Z,79.50
2019-03-24T17:23:45.317Z,79.43
2019-03-24T17:26:19.270Z,90.50
2019-03-24T17:28:52.939Z,90.03
2019-03-24T17:31:25.420Z,84.35
2019-03-24T17:33:59.577Z,90.77
2019-03-24T17:36:33.638Z,77.50
2019-03-24T17:39:07.685Z,81.83
2019-03-24T17:41:40.606Z,88.23
2019-03-24T17:44:13.403Z,92.90
2019-03-24T17:46:46.422Z,85.50
2019-03-24T17:49:19.508Z,85.50
2019-03-24T17:52:00.389Z,93.27
2019-03-24T17:54:25.455Z,86.43
2019-03-24T17:56:58.619Z,93.07
2019-03-24T17:59:32.627Z,102.87
2019-03-24T18:02:13.886Z,96.13
2019-03-24T18:04:39.469Z,97.60
2019-03-24T18:07:14.986Z,103.07
2019-03-24T18:09:49.545Z,88.63
2019-03-24T18:12:22.019Z,108.13
2019-03-24T18:14:54.471Z,98.77
2019-03-24T18:17:27.629Z,95.10
2019-03-24T18:20:01.458Z,88.37
2019-03-24T18:22:33.708Z,109.90
2019-03-24T18:25:06.667Z,145.77
2019-03-24T18:27:39.417Z,96.23
2019-03-24T18:30:13.229Z,96.23
2019-03-24T18:32:46.530Z,97.77
2019-03-24T18:35:19.647Z,110.03
2019-03-24T18:37:55.160Z,92.27
2019-03-24T18:40:27.436Z,85.60
2019-03-24T18:43:01.717Z,85.33
2019-03-24T18:45:36.520Z,83.47
2019-03-24T18:48:08.846Z,80.97
2019-03-24T18:50:43.770Z,95.73
2019-03-24T18:53:15.985Z,91.03
2019-03-24T18:55:49.024Z,106.58
2019-03-24T18:58:22.791Z,107.03
2019-03-24T19:00:55.886Z,100.60
2019-03-24T19:03:27.999Z,98.30
2019-03-24T19:06:00.975Z,96.60
2019-03-24T19:08:37.304Z,105.73
2019-03-24T19:11:10.010Z,103.77
2019-03-24T19:13:42.979Z,108.60
2019-03-24T19:16:16.020Z,93.93
2019-03-24T19:18:49.782Z,88.87
2019-03-24T19:21:23.925Z,110.52
2019-03-24T19:23:57.910Z,115.67
2019-03-24T19:26:30.836Z,87.87
2019-03-24T19:29:02.823Z,88.67
2019-03-24T19:31:35.550Z,95.23
2019-03-24T19:34:08.934Z,102.80
2019-03-24T19:36:44.312Z,92.27
2019-03-24T19:39:16.233Z,100.97
2019-03-24T19:41:49.969Z,95.25
2019-03-24T19:44:23.211Z,101.43
2019-03-24T19:46:57.530Z,103.43
2019-03-24T19:49:31.180Z,99.67
2019-03-24T19:52:05.074Z,103.30
2019-03-24T19:54:38.627Z,99.10
2019-03-24T19:57:11.108Z,99.60
2019-03-24T19:59:46.662Z,90.30
2019-03-24T20:02:20.163Z,88.30
2019-03-24T20:04:55.222Z,98.97
2019-03-24T20:07:28.135Z,104.73
2019-03-24T20:10:02.118Z,94.60
2019-03-24T20:12:37.775Z,100.20
2019-03-24T20:15:10.381Z,97.90
2019-03-24T20:17:43.179Z,100.23
2019-03-24T20:20:16.394Z,102.87
2019-03-24T20:22:56.285Z,112.30
2019-03-24T20:25:27.318Z,103.53
2019-03-24T20:27:59.300Z,105.13
2019-03-24T20:30:31.852Z,108.17
2019-03-24T20:33:04.283Z,106.93
2019-03-24T20:35:38.236Z,104.80
2019-03-24T20:38:13.239Z,101.03
2019-03-24T20:40:46.326Z,121.47
2019-03-24T20:43:19.320Z,98.23
2019-03-24T20:45:52.140Z,114.17
2019-03-24T20:48:25.326Z,110.50
2019-03-24T20:50:57.146Z,120.87
2019-03-24T20:53:30.364Z,114.57
2019-03-24T20:56:03.158Z,123.73
2019-03-24T20:58:36.363Z,111.83
2019-03-24T21:01:10.084Z,111.67
2019-03-24T21:03:42.393Z,112.43
2019-03-24T21:06:16.441Z,115.07
2019-03-24T21:08:49.846Z,106.77
2019-03-24T21:11:22.370Z,114.20
2019-03-24T21:13:55.046Z,109.53
2019-03-24T21:16:29.334Z,112.33
2019-03-24T21:19:03.456Z,123.43
2019-03-24T21:21:36.627Z,114.80
2019-03-24T21:24:10.335Z,113.60
2019-03-24T21:26:45.096Z,116.87
2019-03-24T21:29:16.933Z,108.90
2019-03-24T21:31:49.490Z,122.67
2019-03-24T21:34:22.195Z,101.23
2019-03-24T21:36:55.470Z,131.47
2019-03-24T21:39:29.377Z,124.27
2019-03-24T21:42:02.400Z,121.30
2019-03-24T21:44:38.449Z,112.83
2019-03-24T21:47:10.516Z,113.80
2019-03-24T21:49:44.067Z,101.13
2019-03-24T21:52:16.311Z,118.27
2019-03-24T21:54:50.528Z,116.90
2019-03-24T21:57:22.456Z,121.67
2019-03-24T21:59:55.271Z,126.07
2019-03-24T22:02:28.598Z,106.87
2019-03-24T22:05:01.738Z,100.33
2019-03-24T22:07:35.696Z,110.32
2019-03-24T22:10:11.248Z,119.77
2019-03-24T22:12:43.648Z,108.23
2019-03-24T22:15:16.353Z,102.87
2019-03-24T22:17:49.572Z,107.50
2019-03-24T22:20:23.647Z,115.97
2019-03-24T22:22:56.858Z,115.83
2019-03-24T22:25:30.650Z,112.10
2019-03-24T22:28:03.884Z,113.33
2019-03-24T22:30:37.640Z,107.50
2019-03-24T22:33:10.557Z,110.53
2019-03-24T22:35:42.780Z,115.43
2019-03-24T22:38:17.832Z,112.70
2019-03-24T22:40:51.597Z,122.70
2019-03-24T22:43:26.702Z,116.87
2019-03-24T22:45:58.877Z,123.83
2019-03-24T22:48:32.794Z,127.47
2019-03-24T22:51:06.806Z,137.17
2019-03-24T22:53:39.818Z,122.20
2019-03-24T22:56:13.892Z,120.83
2019-03-24T22:58:47.875Z,135.63
2019-03-24T23:01:21.460Z,125.57
2019-03-24T23:03:53.951Z,125.73
2019-03-24T23:06:26.840Z,134.00
2019-03-24T23:09:00.800Z,135.80
2019-03-24T23:11:32.809Z,123.07
2019-03-24T23:14:05.856Z,128.00
2019-03-24T23:16:37.999Z,133.53
2019-03-24T23:19:11.030Z,119.37
2019-03-24T23:21:44.990Z,126.00
2019-03-24T23:24:16.882Z,118.50
2019-03-24T23:26:50.894Z,113.87
2019-03-24T23:29:22.900Z,116.50
2019-03-24T23:31:56.223Z,118.83
2019-03-24T23:34:28.912Z,124.87
2019-03-24T23:37:02.850Z,127.43
2019-03-24T23:39:35.196Z,118.97
2019-03-24T23:42:07.215Z,111.87
2019-03-24T23:44:42.042Z,123.87
2019-03-24T23:47:14.883Z,130.20
2019-03-24T23:49:48.040Z,124.63
2019-03-24T23:52:20.081Z,117.47
2019-03-24T23:54:54.330Z,117.13
2019-03-24T23:57:29.243Z,125.87
